Time;durP1;ratioP1;P1;durP2;ratioP2;P2;SDS_P1;SDS_P2;PMS_P1;PMS_P2;Temp;Humidity;BMP_temperature;BMP_pressure;BME280_temperature;BME280_humidity;BME280_pressure;Samples;Min_cycle;Max_cycle;Signal;HPM_P1;HPM_P2
2024/02/29 00:00:36;;;;;;;34.22;28.88;;;6.50;99.90;;;;;;5039755;28;20049;-75
2024/02/29 00:03:02;;;;;;;34.67;28.27;;;6.50;99.90;;;;;;5040945;28;20059;-75
2024/02/29 00:05:28;;;;;;;37.25;29.63;;;6.50;99.90;;;;;;5030434;28;20144;-75
2024/02/29 00:07:54;;;;;;;34.00;28.50;;;6.50;99.90;;;;;;5039809;28;20053;-75
2024/02/29 00:10:20;;;;;;;36.15;28.67;;;6.50;99.90;;;;;;5021583;28;20103;-75
2024/02/29 00:12:46;;;;;;;34.53;28.95;;;6.40;99.90;;;;;;5040590;28;20428;-75
2024/02/29 00:15:11;;;;;;;36.25;30.17;;;6.40;99.90;;;;;;5043396;28;20131;-75
2024/02/29 00:17:37;;;;;;;35.70;28.42;;;6.40;99.90;;;;;;5029466;28;20044;-75
2024/02/29 00:20:04;;;;;;;33.83;28.73;;;6.30;99.90;;;;;;5030582;28;20045;-75
2024/02/29 00:22:30;;;;;;;32.47;28.35;;;6.30;99.90;;;;;;5036151;28;20045;-75
2024/02/29 00:24:55;;;;;;;33.72;27.20;;;6.20;99.90;;;;;;5039307;28;20108;-75
2024/02/29 00:27:22;;;;;;;31.88;27.50;;;6.20;99.90;;;;;;5030261;28;20738;-75
2024/02/29 00:29:48;;;;;;;34.63;27.60;;;6.20;99.90;;;;;;5049280;28;20436;-74
2024/02/29 00:32:14;;;;;;;33.60;27.42;;;6.20;99.90;;;;;;5048092;28;20044;-75
2024/02/29 00:34:39;;;;;;;33.22;27.65;;;6.20;99.90;;;;;;5033289;28;20118;-75
2024/02/29 00:37:05;;;;;;;32.42;27.55;;;6.10;99.90;;;;;;5044005;28;20105;-75
2024/02/29 00:39:31;;;;;;;31.85;27.77;;;6.10;99.90;;;;;;5027050;28;20094;-74
2024/02/29 00:41:57;;;;;;;32.25;27.23;;;6.10;99.90;;;;;;5033855;28;20198;-74
2024/02/29 00:44:22;;;;;;;33.80;27.60;;;6.20;99.90;;;;;;5037602;28;20401;-73
2024/02/29 00:46:48;;;;;;;31.55;27.30;;;6.10;99.90;;;;;;5046750;28;20033;-74
2024/02/29 00:49:20;;;;;;;32.00;26.48;;;6.10;99.90;;;;;;5028822;28;20511;-75
2024/02/29 00:51:46;;;;;;;29.30;25.98;;;6.00;99.90;;;;;;5022092;28;20097;-74
2024/02/29 00:54:11;;;;;;;30.60;25.85;;;6.00;99.90;;;;;;5027617;28;20045;-75
2024/02/29 00:56:37;;;;;;;30.83;26.35;;;6.00;99.90;;;;;;5035937;28;20497;-75
2024/02/29 00:59:03;;;;;;;31.55;26.63;;;6.00;99.90;;;;;;5019942;28;20055;-74
2024/02/29 01:01:28;;;;;;;31.20;27.05;;;6.00;99.90;;;;;;5043158;28;20040;-75
2024/02/29 01:03:54;;;;;;;32.03;26.17;;;6.00;99.90;;;;;;5027286;28;20049;-75
2024/02/29 01:06:20;;;;;;;30.73;26.25;;;5.90;99.90;;;;;;5050251;28;20035;-75
2024/02/29 01:08:46;;;;;;;33.00;27.33;;;5.90;99.90;;;;;;5035171;28;20194;-75
2024/02/29 01:11:12;;;;;;;31.20;25.70;;;5.90;99.90;;;;;;5031767;28;20055;-75
2024/02/29 01:13:38;;;;;;;28.55;25.23;;;5.90;99.90;;;;;;5045157;28;20392;-75
2024/02/29 01:16:04;;;;;;;34.22;27.17;;;5.90;99.90;;;;;;5022574;28;20134;-75
2024/02/29 01:18:29;;;;;;;31.63;25.65;;;5.90;99.90;;;;;;5027362;28;20413;-75
2024/02/29 01:20:55;;;;;;;28.65;25.33;;;5.90;99.90;;;;;;5044461;28;20045;-74
2024/02/29 01:23:21;;;;;;;29.98;26.35;;;5.90;99.90;;;;;;5029047;28;20136;-75
2024/02/29 01:25:47;;;;;;;29.48;25.20;;;5.90;99.90;;;;;;5023605;28;20045;-75
2024/02/29 01:28:12;;;;;;;28.38;25.35;;;5.90;99.90;;;;;;5028184;28;20052;-75
2024/02/29 01:30:38;;;;;;;32.55;25.10;;;6.00;99.90;;;;;;5030910;28;20061;-75
2024/02/29 01:33:05;;;;;;;28.73;25.33;;;6.00;99.90;;;;;;5030164;28;20599;-75
2024/02/29 01:35:31;;;;;;;28.75;25.00;;;6.00;99.90;;;;;;5022254;28;20045;-76
2024/02/29 01:37:59;;;;;;;29.30;25.95;;;6.10;99.90;;;;;;5025924;28;20521;-75
2024/02/29 01:40:25;;;;;;;31.58;26.13;;;6.10;99.90;;;;;;5027863;28;20072;-75
2024/02/29 01:42:51;;;;;;;26.65;23.75;;;6.10;99.90;;;;;;5031556;28;20515;-75
2024/02/29 01:45:17;;;;;;;30.40;25.40;;;6.20;99.90;;;;;;5048645;28;20522;-75
2024/02/29 01:47:43;;;;;;;32.42;25.60;;;6.20;99.90;;;;;;5040978;28;20045;-75
2024/02/29 01:50:10;;;;;;;30.33;25.25;;;6.20;99.90;;;;;;5034077;28;20068;-75
2024/02/29 01:52:42;;;;;;;29.75;25.08;;;6.20;99.90;;;;;;5030145;28;20087;-75
2024/02/29 01:55:10;;;;;;;28.50;24.98;;;6.20;99.90;;;;;;5035200;28;20037;-75
2024/02/29 01:57:36;;;;;;;31.23;25.60;;;6.30;99.90;;;;;;5027523;28;20560;-75
2024/02/29 02:00:04;;;;;;;29.77;26.13;;;6.30;99.90;;;;;;5037142;28;20558;-75
2024/02/29 02:02:30;;;;;;;28.23;24.88;;;6.30;99.90;;;;;;5023880;28;20128;-75
2024/02/29 02:04:56;;;;;;;27.73;24.67;;;6.20;99.90;;;;;;5027819;28;20123;-75
2024/02/29 02:07:22;;;;;;;27.35;24.55;;;6.30;99.90;;;;;;5029875;28;20488;-75
2024/02/29 02:09:47;;;;;;;27.25;24.23;;;6.30;99.90;;;;;;5014858;28;20076;-74
2024/02/29 02:12:13;;;;;;;27.58;24.67;;;6.30;99.90;;;;;;5043291;28;20048;-72
2024/02/29 02:14:40;;;;;;;27.02;24.08;;;6.30;99.90;;;;;;5021272;28;20048;-74
2024/02/29 02:17:11;;;;;;;25.50;22.83;;;6.40;99.90;;;;;;5045906;28;20481;-74
2024/02/29 02:19:38;;;;;;;25.58;22.83;;;6.40;99.90;;;;;;5048146;28;20048;-73
2024/02/29 02:22:04;;;;;;;26.08;22.60;;;6.40;99.90;;;;;;5032721;28;20539;-73
2024/02/29 02:24:36;;;;;;;27.58;23.30;;;6.40;99.90;;;;;;5034377;28;20036;-74
2024/02/29 02:27:03;;;;;;;26.75;21.90;;;6.50;99.90;;;;;;5042029;28;20115;-74
2024/02/29 02:29:29;;;;;;;25.05;22.45;;;6.40;99.90;;;;;;5042873;28;20112;-74
2024/02/29 02:31:55;;;;;;;24.83;21.95;;;6.40;99.90;;;;;;5029774;28;20191;-74
2024/02/29 02:34:21;;;;;;;25.77;22.98;;;6.50;99.90;;;;;;5032487;28;20045;-74
2024/02/29 02:36:47;;;;;;;26.90;22.83;;;6.40;99.90;;;;;;5023323;28;20037;-74
2024/02/29 02:39:17;;;;;;;24.58;21.98;;;6.50;99.90;;;;;;5036998;28;20041;-74
2024/02/29 02:41:44;;;;;;;25.67;22.88;;;6.50;99.90;;;;;;5031339;28;20591;-74
2024/02/29 02:44:11;;;;;;;25.23;21.73;;;6.50;99.90;;;;;;5033625;28;20559;-74
2024/02/29 02:46:36;;;;;;;24.38;21.25;;;6.50;99.90;;;;;;5033287;28;20678;-74
2024/02/29 02:49:03;;;;;;;26.23;21.52;;;6.50;99.90;;;;;;5025459;28;20052;-74
2024/02/29 02:51:29;;;;;;;26.27;21.30;;;6.50;99.90;;;;;;5030676;28;20574;-73
2024/02/29 02:53:55;;;;;;;22.98;19.58;;;6.50;99.90;;;;;;5018391;28;20048;-74
2024/02/29 02:56:21;;;;;;;22.95;19.13;;;6.50;99.90;;;;;;5037956;28;20072;-74
2024/02/29 02:58:47;;;;;;;22.90;19.83;;;6.50;99.90;;;;;;5017623;28;20044;-74
2024/02/29 03:01:12;;;;;;;23.70;19.58;;;6.50;99.90;;;;;;5022454;28;20115;-74
2024/02/29 03:03:38;;;;;;;21.80;19.45;;;6.60;99.90;;;;;;5035230;28;20066;-74
2024/02/29 03:06:04;;;;;;;20.33;18.17;;;6.50;99.90;;;;;;5028590;28;20052;-74
2024/02/29 03:08:31;;;;;;;21.95;19.65;;;6.60;99.90;;;;;;5036961;28;20041;-74
2024/02/29 03:10:57;;;;;;;22.10;17.90;;;6.60;99.90;;;;;;5023505;28;20056;-74
2024/02/29 03:13:23;;;;;;;21.08;17.92;;;6.60;99.90;;;;;;5029400;28;20037;-74
2024/02/29 03:15:48;;;;;;;22.30;18.80;;;6.60;99.90;;;;;;5033927;28;20127;-74
2024/02/29 03:18:14;;;;;;;23.38;19.23;;;6.60;99.90;;;;;;5040170;28;20036;-74
2024/02/29 03:20:40;;;;;;;19.83;17.73;;;6.60;99.90;;;;;;5028713;28;20049;-74
2024/02/29 03:23:06;;;;;;;19.88;17.50;;;6.60;99.90;;;;;;5018838;28;20619;-74
2024/02/29 03:25:32;;;;;;;21.15;17.58;;;6.60;99.90;;;;;;5028273;28;20044;-74
2024/02/29 03:27:58;;;;;;;21.75;17.83;;;6.50;99.90;;;;;;5027149;28;20063;-75
2024/02/29 03:30:23;;;;;;;23.55;18.50;;;6.50;99.90;;;;;;5029245;28;20494;-74
2024/02/29 03:32:52;;;;;;;20.27;18.15;;;6.50;99.90;;;;;;5021202;28;20049;-74
2024/02/29 03:35:18;;;;;;;20.73;16.90;;;6.50;99.90;;;;;;5029243;28;20049;-74
2024/02/29 03:37:44;;;;;;;20.83;17.38;;;6.50;99.90;;;;;;5017710;28;20041;-74
2024/02/29 03:40:10;;;;;;;19.25;17.30;;;6.60;99.90;;;;;;5029674;28;20099;-74
2024/02/29 03:42:36;;;;;;;20.58;16.90;;;6.50;99.90;;;;;;5018788;28;20423;-74
2024/02/29 03:45:04;;;;;;;20.30;17.33;;;6.50;99.90;;;;;;5030755;28;20047;-74
2024/02/29 03:47:30;;;;;;;19.40;17.02;;;6.50;99.90;;;;;;5023156;28;20128;-75
2024/02/29 03:49:56;;;;;;;19.63;16.23;;;6.50;99.90;;;;;;5028102;28;20072;-75
2024/02/29 03:52:21;;;;;;;19.95;17.27;;;6.60;99.90;;;;;;5028548;28;20044;-75
2024/02/29 03:54:57;;;;;;;20.02;17.48;;;6.50;99.90;;;;;;5042312;28;20136;-75
2024/02/29 03:57:25;;;;;;;21.30;17.95;;;6.50;99.90;;;;;;5039396;28;20405;-76
2024/02/29 03:59:51;;;;;;;21.77;18.30;;;6.50;99.90;;;;;;5053772;28;20338;-75
2024/02/29 04:02:17;;;;;;;23.48;17.92;;;6.50;99.90;;;;;;5046594;28;20071;-75
2024/02/29 04:04:43;;;;;;;24.25;20.42;;;6.50;99.90;;;;;;5022294;28;20087;-75
2024/02/29 04:07:09;;;;;;;26.85;20.38;;;6.50;99.90;;;;;;5028095;28;20660;-76
2024/02/29 04:09:35;;;;;;;27.40;21.30;;;6.40;99.90;;;;;;5055941;28;20032;-75
2024/02/29 04:12:04;;;;;;;27.15;21.25;;;6.40;99.90;;;;;;5049649;28;20033;-75
2024/02/29 04:14:30;;;;;;;25.77;21.15;;;6.40;99.90;;;;;;5045327;28;20046;-75
2024/02/29 04:16:56;;;;;;;28.83;22.50;;;6.30;99.90;;;;;;5039133;28;20400;-76
2024/02/29 04:19:21;;;;;;;27.98;22.90;;;6.30;99.90;;;;;;5040287;28;20286;-75
2024/02/29 04:21:47;;;;;;;26.60;22.02;;;6.30;99.90;;;;;;5043912;28;20040;-76
2024/02/29 04:24:13;;;;;;;25.48;21.92;;;6.20;99.90;;;;;;5026770;28;20497;-75
2024/02/29 04:26:39;;;;;;;26.70;22.30;;;6.20;99.90;;;;;;5042032;28;20051;-76
2024/02/29 04:29:05;;;;;;;30.15;23.27;;;6.20;99.90;;;;;;5025155;28;20098;-76
2024/02/29 04:31:31;;;;;;;30.73;22.63;;;6.20;99.90;;;;;;5023092;28;20489;-76
2024/02/29 04:33:59;;;;;;;30.67;23.45;;;6.10;99.90;;;;;;5026428;28;20075;-76
2024/02/29 04:36:25;;;;;;;32.28;24.42;;;6.20;99.90;;;;;;5029805;28;20069;-76
2024/02/29 04:38:50;;;;;;;30.80;23.25;;;6.10;99.90;;;;;;5028342;28;20048;-76
2024/02/29 04:41:16;;;;;;;34.53;24.20;;;6.10;99.90;;;;;;5031874;28;20045;-74
2024/02/29 04:43:42;;;;;;;32.33;25.45;;;6.10;99.90;;;;;;5026602;28;20044;-75
2024/02/29 04:46:08;;;;;;;31.42;24.25;;;6.10;99.90;;;;;;5022513;28;20044;-75
2024/02/29 04:48:34;;;;;;;30.52;23.52;;;6.10;99.90;;;;;;5029699;28;20049;-76
2024/02/29 04:51:04;;;;;;;31.40;23.75;;;6.00;99.90;;;;;;5019324;28;20075;-75
2024/02/29 04:53:30;;;;;;;30.02;23.48;;;6.00;99.90;;;;;;5041986;28;20056;-76
2024/02/29 04:55:56;;;;;;;30.48;23.20;;;6.00;99.90;;;;;;5033864;28;20057;-76
2024/02/29 04:58:22;;;;;;;30.25;23.05;;;6.10;99.90;;;;;;5038729;28;20200;-76
2024/02/29 05:00:48;;;;;;;30.05;23.85;;;6.00;99.90;;;;;;5032259;28;20052;-75
2024/02/29 05:03:14;;;;;;;30.33;23.75;;;6.00;99.90;;;;;;5042485;28;20114;-75
2024/02/29 05:05:39;;;;;;;28.95;23.42;;;6.10;99.90;;;;;;5023484;28;21329;-75
2024/02/29 05:08:05;;;;;;;29.45;22.52;;;6.00;99.90;;;;;;5051983;28;20045;-75
2024/02/29 05:10:31;;;;;;;28.90;23.00;;;6.00;99.90;;;;;;5048769;28;20124;-75
2024/02/29 05:12:57;;;;;;;32.35;23.23;;;6.00;99.90;;;;;;5022446;28;20072;-75
2024/02/29 05:15:23;;;;;;;32.15;24.70;;;6.00;99.90;;;;;;5035210;28;20501;-75
2024/02/29 05:17:49;;;;;;;31.75;23.35;;;6.00;99.90;;;;;;5039591;28;20032;-74
2024/02/29 05:20:15;;;;;;;29.83;21.42;;;6.00;99.90;;;;;;5029937;28;20032;-74
2024/02/29 05:22:42;;;;;;;29.02;21.88;;;6.00;99.90;;;;;;5037314;28;20305;-75
2024/02/29 05:25:10;;;;;;;26.63;20.65;;;6.00;99.90;;;;;;5025801;28;20048;-75
2024/02/29 05:27:37;;;;;;;24.23;19.33;;;6.00;99.90;;;;;;5039536;28;20045;-75
2024/02/29 05:30:03;;;;;;;25.38;19.52;;;6.00;99.90;;;;;;5037692;28;20044;-75
2024/02/29 05:32:30;;;;;;;25.10;18.80;;;6.00;99.90;;;;;;5032823;28;20508;-74
2024/02/29 05:34:56;;;;;;;23.02;18.75;;;6.00;99.90;;;;;;5028961;28;20049;-75
2024/02/29 05:37:22;;;;;;;25.58;18.02;;;5.90;99.90;;;;;;5026296;28;20328;-76
2024/02/29 05:39:47;;;;;;;24.27;17.60;;;6.00;99.90;;;;;;5029882;28;20045;-75
2024/02/29 05:42:14;;;;;;;23.83;18.00;;;6.00;99.90;;;;;;5031571;28;20109;-75
2024/02/29 05:44:40;;;;;;;22.73;17.65;;;6.00;99.90;;;;;;5018463;28;20370;-76
2024/02/29 05:47:07;;;;;;;20.45;17.13;;;6.10;99.90;;;;;;5040434;28;20040;-75
2024/02/29 05:49:34;;;;;;;22.70;17.38;;;6.10;99.90;;;;;;5040378;28;20098;-75
2024/02/29 05:52:00;;;;;;;22.55;17.52;;;6.00;99.90;;;;;;5024324;28;20052;-75
2024/02/29 05:54:26;;;;;;;24.58;18.73;;;6.10;99.90;;;;;;5038852;28;20076;-75
2024/02/29 05:56:51;;;;;;;21.73;18.27;;;6.10;99.90;;;;;;5038122;28;20079;-74
2024/02/29 05:59:17;;;;;;;22.67;17.42;;;6.10;99.90;;;;;;5047010;28;20102;-76
2024/02/29 06:01:43;;;;;;;22.10;17.80;;;6.00;99.90;;;;;;5028710;28;20113;-75
2024/02/29 06:04:08;;;;;;;24.55;18.70;;;6.00;99.90;;;;;;5033059;28;20103;-75
2024/02/29 06:06:34;;;;;;;26.88;18.48;;;6.00;99.90;;;;;;5023078;28;20125;-75
2024/02/29 06:09:00;;;;;;;24.15;18.40;;;6.00;99.90;;;;;;5053075;28;20074;-75
2024/02/29 06:11:26;;;;;;;24.52;18.23;;;6.00;99.90;;;;;;5039703;28;20485;-75
2024/02/29 06:13:51;;;;;;;22.20;18.42;;;6.00;99.90;;;;;;5045695;28;20548;-76
2024/02/29 06:16:17;;;;;;;24.33;19.23;;;6.00;99.90;;;;;;5015836;28;20058;-74
2024/02/29 06:18:46;;;;;;;25.38;19.55;;;6.00;99.90;;;;;;5029420;28;20041;-74
2024/02/29 06:21:12;;;;;;;25.52;20.10;;;6.00;99.90;;;;;;5015439;28;20498;-75
2024/02/29 06:23:38;;;;;;;26.40;20.02;;;6.00;99.90;;;;;;5040627;28;20045;-75
2024/02/29 06:26:04;;;;;;;26.42;19.98;;;6.00;99.90;;;;;;5026036;28;20060;-76
2024/02/29 06:28:30;;;;;;;29.27;21.35;;;6.00;99.90;;;;;;5044930;28;20052;-75
2024/02/29 06:30:55;;;;;;;27.17;20.90;;;6.00;99.90;;;;;;5045552;28;20057;-76
2024/02/29 06:33:21;;;;;;;28.27;21.30;;;5.90;99.90;;;;;;5047973;28;20040;-76
2024/02/29 06:35:47;;;;;;;30.48;21.88;;;6.00;99.90;;;;;;5028289;28;20468;-76
2024/02/29 06:38:14;;;;;;;33.35;23.80;;;6.00;99.90;;;;;;5019206;28;20087;-75
2024/02/29 06:40:40;;;;;;;37.35;23.80;;;6.00;99.90;;;;;;5042949;28;20317;-76
2024/02/29 06:43:06;;;;;;;30.63;22.63;;;6.00;99.90;;;;;;5037595;28;20136;-76
2024/02/29 06:45:35;;;;;;;31.75;23.15;;;6.00;99.90;;;;;;5047824;28;20075;-75
2024/02/29 06:48:04;;;;;;;28.48;23.20;;;6.00;99.90;;;;;;5045069;28;20099;-75
2024/02/29 06:50:30;;;;;;;31.48;23.77;;;6.00;99.90;;;;;;5024420;28;20075;-74
2024/02/29 06:52:57;;;;;;;30.70;22.92;;;6.00;99.90;;;;;;5029511;28;20072;-75
2024/02/29 06:55:23;;;;;;;35.00;23.83;;;6.00;99.90;;;;;;5036550;28;20071;-75
2024/02/29 06:57:49;;;;;;;33.20;24.13;;;6.10;99.90;;;;;;5039831;28;20037;-75
2024/02/29 07:00:15;;;;;;;31.35;22.77;;;6.00;99.90;;;;;;5033764;28;20490;-75
2024/02/29 07:02:41;;;;;;;28.55;22.95;;;6.10;99.90;;;;;;5023095;28;20051;-76
2024/02/29 07:05:08;;;;;;;32.33;22.85;;;6.10;99.90;;;;;;5025199;28;20062;-75
2024/02/29 07:07:34;;;;;;;31.20;24.02;;;6.10;99.90;;;;;;5026783;28;20083;-75
2024/02/29 07:09:59;;;;;;;32.08;22.85;;;6.10;99.90;;;;;;5040799;28;20580;-75
2024/02/29 07:12:25;;;;;;;29.15;21.85;;;6.10;99.90;;;;;;5031558;28;20083;-75
2024/02/29 07:14:51;;;;;;;31.27;24.48;;;6.10;99.90;;;;;;5041824;28;20043;-75
2024/02/29 07:17:17;;;;;;;30.75;23.15;;;6.10;99.90;;;;;;5032413;28;20032;-76
2024/02/29 07:19:43;;;;;;;28.25;22.73;;;6.10;99.90;;;;;;5013431;28;20956;-76
2024/02/29 07:22:08;;;;;;;33.28;22.48;;;6.20;99.90;;;;;;5021167;28;20037;-75
2024/02/29 07:24:34;;;;;;;31.00;23.40;;;6.20;99.90;;;;;;5027728;28;20344;-75
2024/02/29 07:27:01;;;;;;;31.27;23.55;;;6.20;99.90;;;;;;5034969;28;20083;-75
2024/02/29 07:29:27;;;;;;;29.50;21.80;;;6.20;99.90;;;;;;5049344;28;20502;-75
2024/02/29 07:31:53;;;;;;;32.83;23.35;;;6.20;99.90;;;;;;5014309;28;20055;-74
2024/02/29 07:34:18;;;;;;;31.00;22.83;;;6.20;99.90;;;;;;5029105;28;20417;-75
2024/02/29 07:36:44;;;;;;;28.15;22.05;;;6.20;99.90;;;;;;5016912;28;20456;-75
2024/02/29 07:39:12;;;;;;;30.98;22.67;;;6.20;99.90;;;;;;5031552;28;20079;-76
2024/02/29 07:41:38;;;;;;;33.15;23.27;;;6.30;99.90;;;;;;5043374;28;20048;-76
2024/02/29 07:44:04;;;;;;;32.40;23.48;;;6.30;99.90;;;;;;5029897;28;20447;-76
2024/02/29 07:46:31;;;;;;;31.98;23.63;;;6.30;99.90;;;;;;5033804;28;20439;-76
2024/02/29 07:48:57;;;;;;;30.25;22.92;;;6.30;99.90;;;;;;5020137;28;20045;-76
2024/02/29 07:51:22;;;;;;;29.33;23.70;;;6.50;99.90;;;;;;5017537;28;20482;-76
2024/02/29 07:53:48;;;;;;;30.95;23.52;;;6.40;99.90;;;;;;5038286;28;20127;-76
2024/02/29 07:56:14;;;;;;;34.03;23.27;;;6.40;99.90;;;;;;5028815;28;20151;-76
2024/02/29 07:58:40;;;;;;;30.08;22.85;;;6.40;99.90;;;;;;5042020;28;20631;-76
2024/02/29 08:01:05;;;;;;;29.85;22.75;;;6.40;99.90;;;;;;5021277;28;20056;-76
2024/02/29 08:03:32;;;;;;;31.55;23.65;;;6.40;99.90;;;;;;5018284;28;20396;-76
2024/02/29 08:05:58;;;;;;;31.67;24.25;;;6.40;99.90;;;;;;5027708;28;20052;-76
2024/02/29 08:08:24;;;;;;;28.38;21.88;;;6.40;99.90;;;;;;5035933;28;20044;-76
2024/02/29 08:10:50;;;;;;;29.92;23.02;;;6.50;99.90;;;;;;5033145;28;20508;-76
2024/02/29 08:13:15;;;;;;;27.88;22.15;;;6.40;99.90;;;;;;5041166;28;20401;-75
2024/02/29 08:15:41;;;;;;;29.88;23.02;;;6.40;99.90;;;;;;5048697;28;20075;-75
2024/02/29 08:18:07;;;;;;;28.58;21.92;;;6.40;99.90;;;;;;5037809;28;20044;-75
2024/02/29 08:20:33;;;;;;;31.40;23.27;;;6.50;99.90;;;;;;5018399;28;20515;-76
2024/02/29 08:22:59;;;;;;;30.60;23.52;;;6.50;99.90;;;;;;5019402;28;20246;-76
2024/02/29 08:25:28;;;;;;;28.15;22.67;;;6.50;99.90;;;;;;5023650;28;20049;-76
2024/02/29 08:27:54;;;;;;;33.63;24.98;;;6.50;99.90;;;;;;5034340;28;20105;-75
2024/02/29 08:30:23;;;;;;;31.25;23.30;;;6.50;99.90;;;;;;5025306;28;20497;-76
2024/02/29 08:32:49;;;;;;;31.80;24.73;;;6.50;99.90;;;;;;5016935;28;20091;-76
2024/02/29 08:35:16;;;;;;;32.40;24.70;;;6.50;99.90;;;;;;5026708;28;20456;-75
2024/02/29 08:37:45;;;;;;;33.00;25.00;;;6.50;99.90;;;;;;5022348;28;20044;-75
2024/02/29 08:40:12;;;;;;;31.75;25.00;;;6.60;99.90;;;;;;5043005;28;20040;-76
2024/02/29 08:42:38;;;;;;;31.73;24.38;;;6.60;99.90;;;;;;5029096;28;20041;-75
2024/02/29 08:45:04;;;;;;;33.92;25.45;;;6.60;99.90;;;;;;5038822;28;20058;-74
2024/02/29 08:47:30;;;;;;;37.55;25.70;;;6.60;99.90;;;;;;5027156;28;20036;-74
2024/02/29 08:49:56;;;;;;;31.45;24.63;;;6.60;99.90;;;;;;5028568;28;21151;-74
2024/02/29 08:52:22;;;;;;;31.83;25.90;;;6.70;99.90;;;;;;5025517;28;20048;-74
2024/02/29 08:54:47;;;;;;;32.40;25.33;;;6.70;99.90;;;;;;5042798;28;20045;-74
2024/02/29 08:57:13;;;;;;;32.10;25.30;;;6.70;99.90;;;;;;5044657;28;20461;-74
2024/02/29 08:59:39;;;;;;;31.23;24.33;;;6.70;99.90;;;;;;5038416;28;20383;-74
2024/02/29 09:02:05;;;;;;;33.17;24.85;;;6.70;99.90;;;;;;5036994;28;20037;-74
2024/02/29 09:04:32;;;;;;;32.28;24.52;;;6.70;99.90;;;;;;5025625;28;20110;-74
2024/02/29 09:06:57;;;;;;;38.90;26.95;;;6.80;99.90;;;;;;5024753;28;20052;-74
2024/02/29 09:09:23;;;;;;;30.77;24.35;;;6.80;99.90;;;;;;5042556;28;20055;-74
2024/02/29 09:11:50;;;;;;;31.17;23.38;;;6.80;99.90;;;;;;5031015;28;20492;-74
2024/02/29 09:14:16;;;;;;;31.60;22.80;;;6.80;99.90;;;;;;5032727;28;20431;-74
2024/02/29 09:16:43;;;;;;;30.52;23.77;;;6.80;99.90;;;;;;5030029;28;20400;-74
2024/02/29 09:19:09;;;;;;;30.23;22.52;;;6.90;99.90;;;;;;5031042;28;20060;-74
2024/02/29 09:21:35;;;;;;;27.67;21.60;;;6.90;99.90;;;;;;5022888;28;20041;-74
2024/02/29 09:24:01;;;;;;;26.92;21.88;;;6.90;99.90;;;;;;5026734;28;20146;-74
2024/02/29 09:26:27;;;;;;;25.52;19.90;;;6.90;99.90;;;;;;5035013;28;20127;-74
2024/02/29 09:28:54;;;;;;;24.60;20.73;;;6.90;99.90;;;;;;5037948;28;20049;-75
2024/02/29 09:31:20;;;;;;;25.10;19.95;;;6.90;99.90;;;;;;5034281;28;20056;-75
2024/02/29 09:33:46;;;;;;;25.33;20.13;;;6.90;99.90;;;;;;5039933;28;20056;-75
2024/02/29 09:36:13;;;;;;;24.02;19.92;;;6.90;99.90;;;;;;5030722;28;20037;-75
2024/02/29 09:38:40;;;;;;;26.42;19.98;;;6.90;99.90;;;;;;5021649;28;20040;-75
2024/02/29 09:41:09;;;;;;;24.92;19.58;;;6.90;99.90;;;;;;5030909;28;20186;-75
2024/02/29 09:43:36;;;;;;;29.97;21.23;;;6.90;99.90;;;;;;5029398;28;20045;-74
2024/02/29 09:46:06;;;;;;;22.13;18.98;;;7.00;99.90;;;;;;5045574;28;20057;-75
2024/02/29 09:48:32;;;;;;;;;;;7.00;99.90;;;;;;5030810;28;20033;-74
2024/02/29 09:51:05;;;;;;;22.10;18.52;;;7.00;99.90;;;;;;5025774;28;20009;-75
2024/02/29 09:53:35;;;;;;;24.38;18.88;;;7.00;99.90;;;;;;5027468;28;20397;-75
2024/02/29 09:56:05;;;;;;;24.93;19.13;;;7.00;99.90;;;;;;5044812;28;20532;-75
2024/02/29 09:58:35;;;;;;;;;;;7.00;99.90;;;;;;5040887;28;20083;-75
2024/02/29 10:01:06;;;;;;;20.60;18.17;;;7.00;99.90;;;;;;5038330;28;19999;-74
2024/02/29 10:03:32;;;;;;;22.15;18.08;;;7.00;99.90;;;;;;5033419;28;20071;-75
2024/02/29 10:06:00;;;;;;;22.48;18.45;;;7.00;99.90;;;;;;5038434;28;20041;-75
2024/02/29 10:08:28;;;;;;;23.65;18.92;;;7.00;99.90;;;;;;5047492;28;20444;-75
2024/02/29 10:10:57;;;;;;;25.50;18.35;;;7.10;99.90;;;;;;5041284;28;20106;-74
2024/02/29 10:13:24;;;;;;;22.40;18.80;;;7.10;99.90;;;;;;5025614;28;20041;-74
2024/02/29 10:15:51;;;;;;;23.40;17.55;;;7.10;99.90;;;;;;5044135;28;20053;-74
2024/02/29 10:18:17;;;;;;;23.38;19.88;;;7.10;99.90;;;;;;5034936;28;20044;-75
2024/02/29 10:20:43;;;;;;;24.63;19.15;;;7.10;99.90;;;;;;5023299;28;20198;-75
2024/02/29 10:23:13;;;;;;;21.67;17.85;;;7.10;99.90;;;;;;5042853;28;20486;-75
2024/02/29 10:25:41;;;;;;;22.42;19.27;;;7.10;99.90;;;;;;5022729;28;20041;-75
2024/02/29 10:28:14;;;;;;;24.45;19.65;;;7.10;99.90;;;;;;5022618;28;20068;-75
2024/02/29 10:30:40;;;;;;;28.27;20.80;;;7.10;99.90;;;;;;5036524;28;20412;-75
2024/02/29 10:33:10;;;;;;;25.88;20.13;;;7.10;99.90;;;;;;5043784;28;20045;-75
2024/02/29 10:35:36;;;;;;;26.45;19.55;;;7.20;99.90;;;;;;5045784;28;20123;-74
2024/02/29 10:38:04;;;;;;;24.67;20.05;;;7.20;99.90;;;;;;5034017;28;20044;-75
2024/02/29 10:40:31;;;;;;;26.88;20.63;;;7.20;99.90;;;;;;5051503;28;20075;-75
2024/02/29 10:43:02;;;;;;;30.75;22.40;;;7.20;99.90;;;;;;5041468;28;20106;-75
2024/02/29 10:45:29;;;;;;;27.10;20.67;;;7.20;99.90;;;;;;5029327;28;20033;-75
2024/02/29 10:48:10;;;;;;;28.95;21.48;;;7.20;99.90;;;;;;5025841;28;20550;-75
2024/02/29 10:50:48;;;;;;;25.05;21.27;;;7.20;99.90;;;;;;5028787;28;20143;-75
2024/02/29 10:53:26;;;;;;;30.65;22.40;;;7.20;99.90;;;;;;5031361;28;20493;-75
2024/02/29 10:56:00;;;;;;;27.30;21.73;;;7.20;99.90;;;;;;5038503;28;20048;-75
2024/02/29 10:58:48;;;;;;;30.27;22.83;;;7.20;99.90;;;;;;5031761;28;20501;-75
2024/02/29 11:01:14;;;;;;;26.23;21.67;;;7.30;99.90;;;;;;5042489;28;20106;-75
2024/02/29 11:03:41;;;;;;;28.13;22.50;;;7.40;99.90;;;;;;5049044;28;20040;-75
2024/02/29 11:06:07;;;;;;;29.10;22.25;;;7.40;99.90;;;;;;5035096;28;20043;-75
2024/02/29 11:08:34;;;;;;;28.60;21.92;;;7.40;99.90;;;;;;5032859;28;20064;-75
2024/02/29 11:11:00;;;;;;;27.13;22.30;;;7.50;99.90;;;;;;5043618;28;20079;-75
2024/02/29 11:13:29;;;;;;;29.35;22.73;;;7.50;99.90;;;;;;5026054;28;20497;-75
2024/02/29 11:15:59;;;;;;;30.00;24.15;;;7.50;99.90;;;;;;5028587;28;20049;-74
2024/02/29 11:18:27;;;;;;;26.38;23.45;;;7.50;99.90;;;;;;5027841;28;20056;-75
2024/02/29 11:21:03;;;;;;;27.20;21.60;;;7.60;99.90;;;;;;5049814;28;20104;-75
2024/02/29 11:23:33;;;;;;;26.05;20.38;;;7.60;99.90;;;;;;5037786;28;20094;-75
2024/02/29 11:26:00;;;;;;;27.10;21.58;;;7.70;99.90;;;;;;5030574;28;20045;-75
2024/02/29 11:28:36;;;;;;;26.40;21.67;;;7.70;99.90;;;;;;5048416;28;20052;-75
2024/02/29 11:31:14;;;;;;;25.30;20.73;;;7.80;99.90;;;;;;5028766;28;20044;-75
2024/02/29 11:33:40;;;;;;;23.77;19.52;;;7.80;99.90;;;;;;5050080;28;20093;-74
2024/02/29 11:36:07;;;;;;;24.75;20.50;;;7.80;99.90;;;;;;5047515;28;20075;-74
2024/02/29 11:38:34;;;;;;;23.00;18.75;;;7.90;99.90;;;;;;5055504;28;20048;-74
2024/02/29 11:41:00;;;;;;;23.05;19.08;;;8.00;99.90;;;;;;5050120;28;20101;-75
2024/02/29 11:43:26;;;;;;;22.20;18.90;;;8.00;99.90;;;;;;5032035;28;20684;-75
2024/02/29 11:45:52;;;;;;;22.98;19.38;;;8.00;99.90;;;;;;5025273;28;20078;-74
2024/02/29 11:48:18;;;;;;;21.33;18.88;;;8.10;99.90;;;;;;5035747;28;20040;-74
2024/02/29 11:50:43;;;;;;;23.88;18.85;;;8.10;99.90;;;;;;5032090;28;20463;-74
2024/02/29 11:53:10;;;;;;;19.45;17.40;;;8.10;99.90;;;;;;5029819;28;20052;-74
2024/02/29 11:55:36;;;;;;;19.98;17.52;;;8.10;99.90;;;;;;5052822;28;20487;-74
2024/02/29 11:58:03;;;;;;;19.85;17.38;;;8.20;99.90;;;;;;5031612;28;20080;-74
2024/02/29 12:00:29;;;;;;;19.58;17.15;;;8.20;99.90;;;;;;5028439;28;20051;-74
2024/02/29 12:02:55;;;;;;;22.30;18.60;;;8.20;99.90;;;;;;5027978;28;20390;-75
2024/02/29 12:05:21;;;;;;;21.45;18.20;;;8.20;99.90;;;;;;5045090;28;20098;-74
2024/02/29 12:07:47;;;;;;;21.92;17.88;;;8.20;99.90;;;;;;5041845;28;20168;-74
2024/02/29 12:10:13;;;;;;;20.20;17.67;;;8.20;99.90;;;;;;5038997;28;20071;-74
2024/02/29 12:12:39;;;;;;;22.35;17.73;;;8.20;99.90;;;;;;5028126;28;20452;-74
2024/02/29 12:15:07;;;;;;;22.02;17.58;;;8.20;99.90;;;;;;5030839;28;20052;-74
2024/02/29 12:17:33;;;;;;;20.23;16.80;;;8.10;99.90;;;;;;5028734;28;20509;-74
2024/02/29 12:19:59;;;;;;;21.80;17.83;;;8.20;99.90;;;;;;5030827;28;20048;-75
2024/02/29 12:22:25;;;;;;;24.33;18.50;;;8.20;99.90;;;;;;5027764;28;20101;-75
2024/02/29 12:24:51;;;;;;;20.80;17.92;;;8.10;99.90;;;;;;5024152;28;20131;-75
2024/02/29 12:27:17;;;;;;;22.15;18.48;;;8.10;99.90;;;;;;5046906;28;20044;-75
2024/02/29 12:29:43;;;;;;;22.10;19.20;;;8.10;99.90;;;;;;5029620;28;20053;-75
2024/02/29 12:32:09;;;;;;;22.23;18.05;;;8.00;99.90;;;;;;5053157;28;20607;-75
2024/02/29 12:34:38;;;;;;;22.33;19.25;;;8.00;99.90;;;;;;5040568;28;20056;-74